Time;durP1;ratioP1;P1;durP2;ratioP2;P2;SDS_P1;SDS_P2;PMS_P1;PMS_P2;Temp;Humidity;BMP_temperature;BMP_pressure;BME280_temperature;BME280_humidity;BME280_pressure;Samples;Min_cycle;Max_cycle;Signal;HPM_P1;HPM_P2
2022/05/25 00:02:23;;;;;;;0.60;0.10;;;16.90;99.90;;;;;;5079995;28;20464;-80
2022/05/25 00:04:52;;;;;;;0.60;0.10;;;16.90;99.90;;;;;;5079773;28;20509;-80
2022/05/25 00:07:21;;;;;;;0.60;0.10;;;16.90;99.90;;;;;;5078580;28;20547;-79
2022/05/25 00:09:49;;;;;;;0.60;0.20;;;16.90;99.90;;;;;;5077287;28;20484;-80
2022/05/25 00:12:20;;;;;;;0.60;0.10;;;;;;;;;;5075763;28;20454;-80
2022/05/25 00:14:50;;;;;;;0.60;0.20;;;16.90;99.90;;;;;;5076291;28;20445;-79
2022/05/25 00:17:18;;;;;;;0.60;0.20;;;16.90;99.90;;;;;;5075935;28;20457;-78
2022/05/25 00:20:01;;;;;;;0.60;0.13;;;16.90;99.90;;;;;;5073694;28;20444;-78
2022/05/25 00:22:38;;;;;;;0.60;0.10;;;16.90;99.90;;;;;;5075404;28;20446;-79
2022/05/25 00:25:08;;;;;;;0.60;0.10;;;16.90;99.90;;;;;;5073662;28;20463;-79
2022/05/25 00:27:36;;;;;;;0.60;0.10;;;16.90;99.90;;;;;;5074266;28;20457;-78
2022/05/25 00:30:06;;;;;;;0.60;0.10;;;16.80;99.90;;;;;;5079398;28;20512;-78
2022/05/25 00:32:36;;;;;;;0.60;0.10;;;16.80;99.90;;;;;;5078487;28;20519;-79
2022/05/25 00:35:05;;;;;;;0.60;0.10;;;;;;;;;;5075754;28;20461;-79
2022/05/25 00:37:34;;;;;;;0.60;0.10;;;16.70;99.90;;;;;;5089882;28;20558;-79
2022/05/25 00:40:02;;;;;;;0.60;0.10;;;16.70;99.90;;;;;;5096807;28;20436;-79
2022/05/25 00:42:30;;;;;;;0.60;0.10;;;16.70;99.90;;;;;;5096096;28;20450;-78
2022/05/25 00:44:58;;;;;;;0.60;0.10;;;16.60;99.90;;;;;;5095916;28;20532;-79
2022/05/25 00:47:28;;;;;;;0.60;0.10;;;16.60;99.90;;;;;;5095108;28;20471;-78
2022/05/25 00:49:57;;;;;;;0.60;0.10;;;16.50;99.90;;;;;;5095085;28;20529;-79
2022/05/25 00:52:27;;;;;;;0.60;0.10;;;16.50;99.90;;;;;;5094977;28;20444;-77
2022/05/25 00:54:59;;;;;;;0.60;0.10;;;16.40;99.90;;;;;;5093692;28;20448;-79
2022/05/25 00:57:31;;;;;;;0.60;0.10;;;16.50;99.90;;;;;;5096546;28;20464;-79
2022/05/25 01:00:05;;;;;;;0.60;0.10;;;16.40;99.90;;;;;;5095487;28;20528;-79
2022/05/25 01:02:36;;;;;;;0.60;0.10;;;16.30;99.90;;;;;;5096953;28;20435;-79
2022/05/25 01:05:05;;;;;;;0.60;0.10;;;16.20;99.90;;;;;;5096183;28;20456;-79
2022/05/25 01:07:50;;;;;;;0.60;0.10;;;16.20;99.90;;;;;;5095137;28;20464;-78
2022/05/25 01:10:30;;;;;;;0.60;0.10;;;16.20;99.90;;;;;;5096078;28;20476;-78
2022/05/25 01:13:08;;;;;;;0.60;0.10;;;16.20;99.90;;;;;;5096148;28;20451;-78
2022/05/25 01:15:47;;;;;;;0.60;0.10;;;16.20;99.90;;;;;;5095124;28;20466;-79
2022/05/25 01:18:25;;;;;;;0.60;0.10;;;16.20;99.90;;;;;;5098307;28;20610;-78
2022/05/25 01:20:57;;;;;;;0.60;0.10;;;16.20;99.90;;;;;;5097081;28;20432;-78
2022/05/25 01:23:54;;;;;;;0.60;0.10;;;16.20;99.90;;;;;;5100740;28;20531;-78
2022/05/25 01:27:07;;;;;;;0.60;0.10;;;16.20;99.90;;;;;;5109125;28;20527;-79
2022/05/25 01:30:06;;;;;;;0.60;0.10;;;16.10;99.90;;;;;;5081499;28;20457;-79
2022/05/25 01:32:41;;;;;;;0.60;0.20;;;16.00;99.90;;;;;;5106152;28;20452;-79
2022/05/25 01:35:17;;;;;;;0.60;0.10;;;16.00;99.90;;;;;;5096601;28;20447;-79
2022/05/25 01:37:50;;;;;;;0.60;0.10;;;16.00;99.90;;;;;;5092919;28;20488;-79
2022/05/25 01:40:24;;;;;;;0.60;0.10;;;16.00;99.90;;;;;;5095970;28;20431;-79
2022/05/25 01:42:58;;;;;;;0.60;0.10;;;15.90;99.90;;;;;;5093738;28;20452;-79
2022/05/25 01:45:32;;;;;;;0.60;0.10;;;16.00;99.90;;;;;;5094625;28;20431;-79
2022/05/25 01:48:04;;;;;;;0.60;0.10;;;15.90;99.90;;;;;;5094588;28;20469;-80
2022/05/25 01:50:38;;;;;;;0.60;0.10;;;15.80;99.90;;;;;;5094070;28;20551;-79
2022/05/25 01:53:09;;;;;;;0.60;0.10;;;15.90;99.90;;;;;;5095416;28;20452;-79
2022/05/25 01:55:46;;;;;;;0.60;0.10;;;15.90;99.90;;;;;;5094339;28;20424;-79
2022/05/25 01:58:18;;;;;;;0.60;0.10;;;15.90;99.90;;;;;;5094083;28;20531;-79
2022/05/25 02:00:49;;;;;;;0.60;0.10;;;15.90;99.90;;;;;;5095691;28;20871;-79
2022/05/25 02:06:26;;;;;;;0.60;0.10;;;15.80;99.90;;;;;;5095989;28;21000;-78
2022/05/25 02:09:22;;;;;;;0.60;0.10;;;15.80;99.90;;;;;;5094699;28;20439;-79
2022/05/25 02:11:56;;;;;;;0.60;0.10;;;15.80;99.90;;;;;;5093800;28;20486;-78
2022/05/25 02:14:34;;;;;;;0.60;0.20;;;15.70;99.90;;;;;;5095180;28;20439;-78
2022/05/25 02:17:21;;;;;;;0.60;0.10;;;15.70;99.90;;;;;;5095546;28;20575;-79
2022/05/25 02:19:58;;;;;;;0.60;0.10;;;15.60;99.90;;;;;;5098372;28;20446;-78
2022/05/25 02:22:34;;;;;;;0.60;0.20;;;15.60;99.90;;;;;;5099428;28;20764;-79
2022/05/25 02:25:09;;;;;;;0.60;0.10;;;15.60;99.90;;;;;;5097468;28;20447;-79
2022/05/25 02:27:42;;;;;;;0.60;0.10;;;15.60;99.90;;;;;;5105005;28;20457;-78
2022/05/25 02:30:16;;;;;;;0.60;0.20;;;15.60;99.90;;;;;;5122617;28;20460;-78
2022/05/25 02:32:49;;;;;;;0.60;0.10;;;15.50;99.90;;;;;;5135229;28;20478;-78
2022/05/25 02:35:19;;;;;;;0.60;0.10;;;15.50;99.90;;;;;;5135992;28;20908;-78
2022/05/25 02:37:47;;;;;;;0.60;0.10;;;15.50;99.90;;;;;;5127488;28;20474;-79
2022/05/25 02:40:15;;;;;;;0.60;0.10;;;15.40;99.90;;;;;;5125779;28;20458;-79
2022/05/25 02:42:43;;;;;;;0.60;0.10;;;15.40;99.90;;;;;;5124586;28;20464;-79
2022/05/25 02:45:12;;;;;;;0.60;0.10;;;15.40;99.90;;;;;;5124648;28;20450;-78
2022/05/25 02:47:40;;;;;;;0.60;0.10;;;15.30;99.90;;;;;;5130632;28;20458;-78
2022/05/25 02:50:10;;;;;;;0.60;0.10;;;15.30;99.90;;;;;;5135287;28;20458;-79
2022/05/25 02:52:38;;;;;;;0.60;0.10;;;15.40;1.00;;;;;;5136372;28;20481;-77
2022/05/25 02:55:07;;;;;;;0.60;0.10;;;17.30;1.00;;;;;;5135191;28;20477;-78
2022/05/25 02:57:35;;;;;;;0.60;0.20;;;;;;;;;;5135805;28;20454;-78
2022/05/25 03:00:04;;;;;;;0.60;0.10;;;15.30;1.00;;;;;;5136846;28;20449;-78
2022/05/25 03:02:32;;;;;;;0.60;0.10;;;15.30;1.00;;;;;;5136307;28;20737;-78
2022/05/25 03:05:00;;;;;;;0.60;0.10;;;15.30;1.00;;;;;;5135290;28;20428;-78
2022/05/25 03:07:29;;;;;;;0.60;0.20;;;15.30;1.00;;;;;;5136089;28;20490;-79
2022/05/25 03:09:57;;;;;;;0.60;0.10;;;15.30;1.00;;;;;;5136207;28;20233;-78
2022/05/25 03:12:25;;;;;;;0.60;0.10;;;15.30;1.00;;;;;;5136221;28;20496;-79
2022/05/25 03:14:53;;;;;;;0.60;0.10;;;15.20;1.00;;;;;;5136795;28;20437;-78
2022/05/25 03:17:21;;;;;;;0.60;0.10;;;15.20;1.00;;;;;;5135913;28;20561;-78
2022/05/25 03:19:52;;;;;;;0.60;0.10;;;15.20;1.00;;;;;;5137274;28;20435;-80
2022/05/25 03:22:21;;;;;;;0.60;0.10;;;15.10;1.00;;;;;;5137797;28;20441;-79
2022/05/25 03:24:50;;;;;;;0.60;0.10;;;15.10;1.00;;;;;;5137522;28;20577;-79
2022/05/25 03:27:18;;;;;;;0.60;0.10;;;15.10;1.00;;;;;;5126325;28;20478;-78
2022/05/25 03:29:46;;;;;;;0.60;0.10;;;13.10;1.00;;;;;;5114898;28;20536;-79
2022/05/25 03:32:15;;;;;;;0.60;0.10;;;15.00;1.00;;;;;;5114326;28;20483;-79
2022/05/25 03:34:43;;;;;;;0.60;0.10;;;15.10;1.00;;;;;;5109426;28;20450;-79
2022/05/25 03:37:10;;;;;;;0.60;0.10;;;15.10;1.00;;;;;;5116105;28;20530;-79
2022/05/25 03:39:38;;;;;;;0.60;0.10;;;15.00;1.00;;;;;;5106244;28;20447;-79
2022/05/25 03:42:12;;;;;;;0.60;0.10;;;15.00;1.00;;;;;;5115632;28;20935;-80
2022/05/25 03:44:39;;;;;;;0.60;0.10;;;14.90;1.00;;;;;;5115899;28;20470;-78
2022/05/25 03:47:07;;;;;;;0.60;0.10;;;14.80;1.00;;;;;;5116526;28;20452;-80
2022/05/25 03:49:35;;;;;;;0.60;0.10;;;14.80;1.00;;;;;;5114508;28;20439;-79
2022/05/25 03:52:04;;;;;;;0.60;0.20;;;14.80;1.00;;;;;;5114348;28;20475;-78
2022/05/25 03:54:33;;;;;;;0.60;0.10;;;14.70;1.00;;;;;;5112684;28;20443;-78
2022/05/25 03:57:01;;;;;;;0.60;0.10;;;14.70;1.00;;;;;;5101753;28;20533;-79
2022/05/25 03:59:30;;;;;;;0.60;0.10;;;14.70;1.00;;;;;;5099939;28;20511;-78
2022/05/25 04:01:58;;;;;;;0.60;0.10;;;;;;;;;;5108690;28;20440;-79
2022/05/25 04:04:27;;;;;;;0.60;0.10;;;;;;;;;;5109102;28;20451;-79
2022/05/25 04:06:55;;;;;;;0.60;0.10;;;14.70;1.00;;;;;;5103700;28;20513;-79
2022/05/25 04:09:22;;;;;;;0.60;0.10;;;14.70;1.00;;;;;;5108175;28;20532;-79
2022/05/25 04:11:51;;;;;;;0.60;0.10;;;14.70;1.00;;;;;;5101911;28;20511;-79
2022/05/25 04:14:19;;;;;;;0.60;0.10;;;14.70;1.00;;;;;;5101032;28;20451;-80
2022/05/25 04:16:48;;;;;;;0.60;0.10;;;14.60;1.00;;;;;;5100505;28;20583;-78
2022/05/25 04:19:17;;;;;;;0.60;0.10;;;14.70;1.00;;;;;;5096286;28;20451;-79
2022/05/25 04:21:45;;;;;;;0.60;0.10;;;14.70;1.00;;;;;;5102429;28;20460;-78
2022/05/25 04:24:13;;;;;;;0.60;0.10;;;14.70;1.00;;;;;;5109445;28;20501;-78
2022/05/25 04:26:41;;;;;;;0.60;0.10;;;14.70;1.00;;;;;;5098579;28;20469;-78
2022/05/25 04:29:09;;;;;;;0.60;0.10;;;14.70;1.00;;;;;;5103297;28;20530;-79
2022/05/25 04:31:37;;;;;;;0.60;0.10;;;14.80;1.00;;;;;;5095419;28;20490;-78
2022/05/25 04:34:09;;;;;;;0.60;0.10;;;14.90;1.00;;;;;;5081038;28;20978;-78
2022/05/25 04:36:38;;;;;;;0.60;0.20;;;15.00;1.00;;;;;;5096364;28;20553;-79
2022/05/25 04:39:06;;;;;;;0.60;0.10;;;15.00;1.00;;;;;;5108549;28;20437;-79
2022/05/25 04:41:35;;;;;;;0.60;0.10;;;15.00;1.00;;;;;;5110081;28;20284;-79
2022/05/25 04:44:04;;;;;;;0.60;0.10;;;15.10;1.00;;;;;;5112014;28;20474;-78
2022/05/25 04:46:32;;;;;;;0.60;0.10;;;15.10;1.00;;;;;;5113540;28;20532;-79
2022/05/25 04:49:00;;;;;;;0.60;0.10;;;15.10;1.00;;;;;;5124087;28;20443;-79
2022/05/25 04:51:30;;;;;;;0.60;0.10;;;15.10;1.00;;;;;;5119655;28;20451;-79
2022/05/25 04:53:58;;;;;;;0.60;0.10;;;15.10;1.00;;;;;;5109216;28;20454;-78
2022/05/25 04:59:12;;;;;;;0.60;0.10;;;15.10;1.00;;;;;;5112920;28;20443;-79
2022/05/25 05:01:39;;;;;;;0.60;0.10;;;15.10;1.00;;;;;;5126225;28;20975;-79
2022/05/25 05:04:07;;;;;;;0.60;0.20;;;15.10;1.00;;;;;;5123357;28;20438;-77
2022/05/25 05:06:37;;;;;;;0.60;0.10;;;15.10;1.00;;;;;;5114098;28;20467;-76
2022/05/25 05:09:06;;;;;;;0.60;0.10;;;15.10;1.00;;;;;;5106349;28;20444;-79
2022/05/25 05:11:36;;;;;;;0.60;0.10;;;;;;;;;;5114528;28;20506;-79
2022/05/25 05:14:04;;;;;;;0.60;0.17;;;15.10;1.00;;;;;;5112432;28;20644;-79
2022/05/25 05:16:32;;;;;;;0.70;0.57;;;15.30;1.00;;;;;;5109292;28;20465;-79
2022/05/25 05:19:00;;;;;;;0.60;0.10;;;15.30;1.00;;;;;;5109354;28;20456;-79
2022/05/25 05:21:28;;;;;;;0.60;0.10;;;15.40;1.00;;;;;;5117316;28;20446;-79
2022/05/25 05:23:57;;;;;;;0.60;0.13;;;15.50;1.00;;;;;;5113400;28;20491;-79
2022/05/25 05:26:25;;;;;;;0.60;0.10;;;15.50;1.00;;;;;;5112200;28;20519;-79
2022/05/25 05:28:54;;;;;;;0.60;0.10;;;;;;;;;;5111026;28;20464;-79
2022/05/25 05:31:22;;;;;;;0.60;0.10;;;13.30;1.00;;;;;;5111713;28;20449;-81
2022/05/25 05:33:50;;;;;;;0.60;0.10;;;15.70;1.00;;;;;;5113529;28;20500;-81
2022/05/25 05:36:22;;;;;;;0.60;0.10;;;15.70;1.00;;;;;;5122288;23;20519;-79
2022/05/25 05:38:54;;;;;;;0.60;0.10;;;15.70;1.00;;;;;;5108140;28;20439;-78
2022/05/25 05:41:26;;;;;;;0.60;0.10;;;15.70;1.00;;;;;;5109234;28;20504;-81
2022/05/25 05:43:54;;;;;;;0.60;0.10;;;15.80;1.00;;;;;;5111919;28;20496;-79
2022/05/25 05:46:23;;;;;;;0.60;0.10;;;15.90;99.90;;;;;;5108721;28;20474;-79
2022/05/25 05:48:51;;;;;;;0.60;0.10;;;15.90;99.90;;;;;;5119897;28;20762;-81
2022/05/25 05:51:19;;;;;;;0.60;0.10;;;15.90;99.90;;;;;;5115817;28;20444;-81
2022/05/25 05:53:47;;;;;;;0.60;0.10;;;15.90;99.90;;;;;;5116483;28;20476;-80
2022/05/25 05:56:15;;;;;;;0.70;0.30;;;15.90;99.90;;;;;;5120817;28;20487;-80
2022/05/25 05:58:52;;;;;;;0.60;0.10;;;15.90;99.90;;;;;;5118929;28;20476;-80
2022/05/25 06:01:20;;;;;;;0.60;0.10;;;15.90;99.90;;;;;;5134794;28;20435;-81
2022/05/25 06:03:48;;;;;;;0.60;0.10;;;15.90;99.90;;;;;;5127413;28;20444;-81
2022/05/25 06:06:16;;;;;;;1.03;0.83;;;15.80;99.90;;;;;;5135078;28;20444;-82
2022/05/25 06:08:46;;;;;;;0.60;0.10;;;15.90;99.90;;;;;;5135793;28;20543;-80
2022/05/25 06:11:14;;;;;;;0.60;0.10;;;15.90;99.90;;;;;;5123441;28;20433;-80
2022/05/25 06:13:42;;;;;;;0.80;0.57;;;15.90;99.90;;;;;;5107011;28;20530;-80
2022/05/25 06:21:43;;;;;;;0.60;0.10;;;16.00;99.90;;;;;;5135719;28;20445;-79
2022/05/25 06:24:11;;;;;;;0.77;0.30;;;16.00;99.90;;;;;;5130916;28;20592;-80
2022/05/25 06:26:39;;;;;;;0.60;0.10;;;16.00;99.90;;;;;;5135641;28;20519;-80
2022/05/25 06:29:07;;;;;;;1.17;0.87;;;16.00;99.90;;;;;;5130685;28;20476;-80
2022/05/25 06:31:36;;;;;;;0.60;0.10;;;16.00;99.90;;;;;;5120965;28;20474;-81
2022/05/25 06:34:04;;;;;;;0.60;0.20;;;16.00;99.90;;;;;;5121795;28;20523;-80
2022/05/25 06:36:32;;;;;;;0.90;0.40;;;15.90;99.90;;;;;;5123713;27;20478;-79
2022/05/25 06:39:00;;;;;;;0.98;0.47;;;15.70;99.90;;;;;;5151092;27;20438;-80
2022/05/25 06:41:29;;;;;;;0.60;0.20;;;15.70;99.90;;;;;;5145625;27;20287;-81
2022/05/25 06:43:57;;;;;;;0.70;0.37;;;15.60;99.90;;;;;;5149131;27;20438;-79
2022/05/25 06:46:25;;;;;;;0.60;0.10;;;15.60;99.90;;;;;;5148639;27;20463;-79
2022/05/25 06:48:58;;;;;;;0.60;0.10;;;15.60;99.90;;;;;;5154529;27;20459;-81
2022/05/25 06:51:28;;;;;;;0.60;0.10;;;15.70;1.00;;;;;;5136437;27;20433;-80
2022/05/25 06:53:57;;;;;;;0.80;0.63;;;15.90;99.90;;;;;;5148349;27;20526;-81
2022/05/25 06:56:26;;;;;;;1.23;0.63;;;16.00;99.90;;;;;;5148265;27;20542;-80
2022/05/25 06:58:55;;;;;;;0.60;0.37;;;16.00;99.90;;;;;;5156556;27;20458;-81
2022/05/25 07:01:24;;;;;;;0.60;0.10;;;16.10;99.90;;;;;;5152377;27;20435;-80
2022/05/25 07:03:53;;;;;;;0.60;0.10;;;16.00;99.90;;;;;;5141755;27;20454;-81
2022/05/25 07:06:24;;;;;;;0.60;0.20;;;16.00;99.90;;;;;;5134320;27;20473;-80
2022/05/25 07:08:52;;;;;;;0.60;0.20;;;16.10;99.90;;;;;;5149320;27;20865;-81
2022/05/25 07:11:23;;;;;;;0.60;0.10;;;16.10;99.90;;;;;;5138470;27;20478;-81
2022/05/25 07:13:51;;;;;;;0.60;0.10;;;16.10;99.90;;;;;;5134921;27;20554;-82
2022/05/25 07:16:21;;;;;;;0.60;0.10;;;16.20;99.90;;;;;;5135324;27;20541;-81
2022/05/25 07:18:50;;;;;;;0.60;0.10;;;16.20;99.90;;;;;;5139203;27;20489;-80
2022/05/25 07:21:20;;;;;;;0.60;0.20;;;16.30;99.90;;;;;;5144177;27;20526;-81
2022/05/25 07:23:51;;;;;;;0.60;0.10;;;16.30;99.90;;;;;;5155404;27;20453;-80
2022/05/25 07:26:20;;;;;;;0.60;0.10;;;16.20;99.90;;;;;;5154173;27;20515;-80
2022/05/25 07:28:47;;;;;;;0.60;0.10;;;16.20;99.90;;;;;;5141797;27;20477;-81
2022/05/25 07:31:23;;;;;;;0.60;0.10;;;16.30;99.90;;;;;;5142061;27;20446;-81
2022/05/25 07:33:55;;;;;;;0.60;0.10;;;16.40;99.90;;;;;;5140140;27;20506;-80
2022/05/25 07:36:25;;;;;;;0.60;0.10;;;16.50;99.90;;;;;;5141200;27;20289;-80
2022/05/25 07:38:56;;;;;;;0.87;0.50;;;16.50;99.90;;;;;;5140681;27;20449;-80
2022/05/25 07:41:25;;;;;;;0.60;0.10;;;16.70;99.90;;;;;;5141468;27;20445;-82
2022/05/25 07:43:57;;;;;;;0.80;0.73;;;16.70;99.90;;;;;;5140971;27;20439;-82
2022/05/25 07:46:27;;;;;;;0.70;0.20;;;17.00;99.90;;;;;;5141634;27;20223;-83
2022/05/25 07:48:55;;;;;;;0.60;0.20;;;;;;;;;;5146818;27;20439;-81
2022/05/25 07:51:25;;;;;;;0.73;0.30;;;16.90;99.90;;;;;;5147598;27;20942;-83
2022/05/25 07:53:59;;;;;;;0.60;0.10;;;16.90;99.90;;;;;;5142205;27;20534;-82
2022/05/25 07:56:30;;;;;;;0.60;0.10;;;17.00;99.90;;;;;;5149668;27;20482;-83
2022/05/25 07:58:59;;;;;;;0.60;0.10;;;17.00;99.90;;;;;;5148669;27;20426;-82
2022/05/25 08:07:03;;;;;;;0.70;0.30;;;17.10;99.90;;;;;;5145474;27;20458;-82
2022/05/25 08:09:36;;;;;;;0.60;0.10;;;17.10;99.90;;;;;;5139396;27;20456;-79
2022/05/25 08:12:06;;;;;;;0.60;0.20;;;17.10;99.90;;;;;;5144668;27;20510;-79
2022/05/25 08:14:34;;;;;;;0.60;0.10;;;17.00;99.90;;;;;;5139494;27;20471;-79
2022/05/25 08:17:03;;;;;;;0.60;0.20;;;17.10;99.90;;;;;;5146764;27;20474;-80
2022/05/25 08:19:31;;;;;;;0.60;0.10;;;17.20;99.90;;;;;;5144174;27;20486;-80
2022/05/25 08:21:59;;;;;;;0.60;0.10;;;17.30;99.90;;;;;;5139116;27;20464;-82
2022/05/25 08:24:29;;;;;;;0.60;0.27;;;17.50;99.90;;;;;;5147775;27;20442;-80
2022/05/25 08:27:06;;;;;;;0.60;0.20;;;17.30;99.90;;;;;;5150475;27;20490;-81
2022/05/25 08:29:34;;;;;;;0.60;0.10;;;17.30;99.90;;;;;;5147592;27;20431;-81
2022/05/25 08:32:02;;;;;;;1.73;0.30;;;17.30;99.90;;;;;;5152282;27;20609;-81
2022/05/25 08:34:31;;;;;;;0.60;0.20;;;17.20;99.90;;;;;;5135017;27;20503;-81
2022/05/25 08:36:59;;;;;;;0.60;0.20;;;17.20;99.90;;;;;;5135425;28;20448;-80
2022/05/25 08:39:27;;;;;;;0.60;0.10;;;17.30;99.90;;;;;;5135293;28;20452;-79
2022/05/25 08:41:59;;;;;;;0.60;0.10;;;17.40;99.90;;;;;;5135599;27;20810;-82
2022/05/25 08:44:29;;;;;;;0.60;0.10;;;17.60;99.90;;;;;;5150903;27;20427;-79
2022/05/25 08:47:00;;;;;;;0.80;0.30;;;17.60;99.90;;;;;;5153873;27;20553;-78
2022/05/25 08:49:33;;;;;;;0.60;0.10;;;17.60;99.90;;;;;;5154835;27;20520;-80
2022/05/25 08:52:04;;;;;;;0.60;0.20;;;17.50;99.90;;;;;;5154143;27;20431;-81
2022/05/25 08:54:36;;;;;;;0.60;0.10;;;17.50;99.90;;;;;;5154153;27;20500;-80
2022/05/25 08:57:08;;;;;;;1.00;0.30;;;17.60;99.90;;;;;;5153437;27;20449;-80
2022/05/25 08:59:40;;;;;;;0.60;0.17;;;17.90;99.90;;;;;;5147172;27;20510;-81
2022/05/25 09:02:17;;;;;;;0.60;0.10;;;17.80;99.90;;;;;;5139615;27;20953;-82
2022/05/25 09:04:50;;;;;;;0.60;0.10;;;17.80;99.90;;;;;;5137372;27;20792;-81
2022/05/25 09:07:25;;;;;;;0.70;0.20;;;17.80;99.90;;;;;;5137477;27;20470;-79
2022/05/25 09:09:54;;;;;;;0.70;0.30;;;17.70;99.90;;;;;;5144411;27;20472;-79
2022/05/25 09:12:28;;;;;;;0.60;0.10;;;17.70;99.90;;;;;;5151157;27;20474;-81
2022/05/25 09:15:03;;;;;;;0.60;0.13;;;17.70;99.90;;;;;;5142979;27;20478;-81
2022/05/25 09:17:36;;;;;;;0.60;0.20;;;17.90;99.90;;;;;;5144068;27;20553;-79
2022/05/25 09:20:06;;;;;;;0.60;0.10;;;18.00;99.90;;;;;;5141384;27;20447;-83
2022/05/25 09:22:34;;;;;;;0.67;0.27;;;18.10;99.90;;;;;;5143696;27;20455;-82
2022/05/25 09:25:06;;;;;;;0.60;0.20;;;18.20;99.90;;;;;;5144875;27;20489;-80
2022/05/25 09:27:39;;;;;;;0.60;0.10;;;18.30;99.90;;;;;;5145249;27;20546;-84
2022/05/25 09:30:14;;;;;;;0.60;0.20;;;18.40;99.90;;;;;;5144990;27;20515;-82
2022/05/25 09:32:50;;;;;;;0.70;0.20;;;18.60;99.90;;;;;;5147438;27;20472;-81
2022/05/25 09:35:21;;;;;;;0.70;0.30;;;18.70;99.90;;;;;;5146049;27;20478;-82
2022/05/25 09:37:54;;;;;;;0.60;0.10;;;18.80;99.90;;;;;;5144101;27;20833;-82
2022/05/25 09:40:24;;;;;;;0.63;0.10;;;18.80;99.90;;;;;;5146512;27;20435;-82
2022/05/25 09:42:55;;;;;;;0.60;0.20;;;18.90;99.90;;;;;;5135392;28;20553;-77
2022/05/25 09:45:30;;;;;;;0.60;0.10;;;19.10;99.90;;;;;;5125700;28;20439;-73
2022/05/25 09:47:57;;;;;;;0.60;0.10;;;19.20;99.90;;;;;;5131572;27;20454;-73
2022/05/25 09:50:32;;;;;;;0.80;0.20;;;19.20;99.90;;;;;;5132531;28;20431;-74
2022/05/25 09:53:03;;;;;;;0.60;0.20;;;19.30;99.90;;;;;;5132204;28;20448;-73
2022/05/25 09:55:35;;;;;;;0.60;0.10;;;19.30;99.90;;;;;;5133011;28;20477;-74
2022/05/25 09:58:06;;;;;;;0.63;0.20;;;19.30;99.90;;;;;;5124049;27;20455;-72
2022/05/25 10:00:48;;;;;;;0.60;0.10;;;19.40;99.90;;;;;;5142336;27;20455;-78
2022/05/25 10:03:29;;;;;;;0.80;0.23;;;19.50;99.90;;;;;;5138914;27;20449;-79
2022/05/25 10:05:59;;;;;;;0.70;0.20;;;19.40;99.90;;;;;;5143541;28;20486;-79
2022/05/25 10:08:32;;;;;;;0.60;0.10;;;19.30;99.90;;;;;;5135322;28;20970;-78
2022/05/25 10:11:27;;;;;;;0.70;0.20;;;19.30;99.90;;;;;;5134595;27;20459;-79
2022/05/25 10:13:57;;;;;;;0.60;0.10;;;19.50;99.90;;;;;;5136743;28;20920;-77
2022/05/25 10:16:29;;;;;;;0.60;0.13;;;19.50;99.90;;;;;;5134918;27;20486;-78
2022/05/25 10:19:01;;;;;;;0.60;0.20;;;19.60;99.90;;;;;;5138011;28;20514;-78
2022/05/25 10:21:32;;;;;;;0.60;0.10;;;19.70;99.90;;;;;;5136547;28;20429;-78
2022/05/25 10:24:03;;;;;;;0.70;0.20;;;19.70;99.90;;;;;;5135073;28;20885;-77
2022/05/25 10:26:36;;;;;;;0.60;0.20;;;19.70;99.90;;;;;;5143366;28;20259;-77
2022/05/25 10:29:08;;;;;;;0.70;0.30;;;19.70;99.90;;;;;;5138683;28;20439;-78
2022/05/25 10:37:39;;;;;;;0.70;0.20;;;20.10;99.90;;;;;;5118199;28;20473;-77
2022/05/25 10:40:10;;;;;;;1.07;0.30;;;20.20;99.90;;;;;;5121672;27;20494;-77
2022/05/25 10:42:51;;;;;;;0.70;0.10;;;20.20;99.90;;;;;;5140029;27;20897;-78
2022/05/25 10:45:21;;;;;;;0.70;0.20;;;20.30;99.90;;;;;;5139223;27;20462;-79
2022/05/25 10:48:08;;;;;;;0.70;0.20;;;20.30;99.90;;;;;;5141992;27;20471;-78
2022/05/25 10:50:47;;;;;;;0.70;0.20;;;20.20;99.90;;;;;;5141958;27;20444;-79
2022/05/25 10:53:38;;;;;;;0.70;0.20;;;20.10;99.90;;;;;;5145890;27;20446;-79
2022/05/25 10:56:21;;;;;;;0.80;0.30;;;20.20;99.90;;;;;;5145136;27;20482;-80
2022/05/25 10:59:03;;;;;;;0.60;0.10;;;20.30;99.90;;;;;;5145184;27;20941;-78
2022/05/25 11:01:44;;;;;;;0.70;0.10;;;20.40;99.90;;;;;;5143519;27;20424;-77
2022/05/25 11:04:56;;;;;;;0.70;0.10;;;20.80;99.90;;;;;;5140173;27;20450;-79
2022/05/25 11:07:36;;;;;;;0.60;0.10;;;20.80;99.90;;;;;;5140286;27;20488;-77
2022/05/25 11:10:38;;;;;;;0.63;0.10;;;20.70;99.90;;;;;;5139720;27;20450;-75
2022/05/25 11:13:43;;;;;;;0.80;0.47;;;20.60;99.90;;;;;;5143584;27;20437;-79
2022/05/25 11:16:27;;;;;;;0.60;0.20;;;20.60;99.90;;;;;;5135581;27;20538;-77
2022/05/25 11:19:14;;;;;;;0.70;0.10;;;20.60;99.90;;;;;;5137705;27;20476;-76
2022/05/25 11:21:55;;;;;;;1.77;0.87;;;20.60;99.90;;;;;;5137575;27;20565;-77
2022/05/25 11:24:42;;;;;;;0.70;0.20;;;20.60;99.90;;;;;;5137930;27;20443;-76
2022/05/25 11:27:22;;;;;;;0.70;0.10;;;20.60;99.90;;;;;;5136473;27;20454;-77
2022/05/25 11:30:08;;;;;;;2.30;2.20;;;20.80;99.90;;;;;;5136558;27;20453;-78
2022/05/25 11:32:53;;;;;;;0.60;0.10;;;20.80;99.90;;;;;;5140116;27;20487;-76
2022/05/25 11:35:45;;;;;;;0.67;0.20;;;20.60;99.90;;;;;;5131967;27;20810;-79
2022/05/25 11:38:29;;;;;;;0.73;0.30;;;20.80;99.90;;;;;;5142528;22;20488;-78
2022/05/25 11:41:11;;;;;;;0.90;0.33;;;20.80;99.90;;;;;;5117323;28;20535;-77
2022/05/25 11:43:58;;;;;;;0.70;0.10;;;20.80;99.90;;;;;;5115950;28;20444;-76
2022/05/25 11:46:36;;;;;;;0.70;0.20;;;20.90;99.90;;;;;;5114014;28;20520;-77
2022/05/25 11:49:46;;;;;;;0.70;0.10;;;20.90;99.90;;;;;;5094301;28;20440;-77
2022/05/25 11:52:35;;;;;;;0.70;0.10;;;20.90;99.90;;;;;;5086725;28;20441;-77
2022/05/25 11:55:20;;;;;;;0.63;0.10;;;21.00;99.90;;;;;;5095044;28;20985;-76
2022/05/25 11:58:02;;;;;;;0.70;0.10;;;20.80;99.90;;;;;;5094651;28;20822;-77
2022/05/25 12:00:58;;;;;;;0.70;0.30;;;20.80;99.90;;;;;;5097218;28;20575;-76
2022/05/25 12:04:04;;;;;;;0.70;0.10;;;20.80;99.90;;;;;;5093912;28;20548;-76
2022/05/25 12:06:58;;;;;;;0.70;0.10;;;20.90;99.90;;;;;;5088359;28;20448;-77
2022/05/25 12:09:36;;;;;;;0.87;0.33;;;20.90;99.90;;;;;;5088659;28;20433;-77
2022/05/25 12:12:14;;;;;;;1.10;0.40;;;20.80;99.90;;;;;;5093364;28;20459;-77
2022/05/25 12:14:54;;;;;;;0.70;0.10;;;21.00;99.90;;;;;;5078295;28;20508;-77
2022/05/25 12:17:30;;;;;;;0.70;0.17;;;21.20;99.90;;;;;;5073629;28;20572;-77
2022/05/25 12:20:02;;;;;;;0.70;0.20;;;21.20;99.90;;;;;;5073916;28;20449;-78
2022/05/25 12:22:34;;;;;;;0.70;0.30;;;21.60;99.90;;;;;;5074781;28;20516;-76
2022/05/25 12:25:06;;;;;;;0.70;0.20;;;21.60;99.90;;;;;;5091879;28;20508;-77
2022/05/25 12:27:41;;;;;;;0.90;0.30;;;21.60;99.90;;;;;;5100276;28;20469;-77
2022/05/25 12:30:12;;;;;;;0.70;0.10;;;21.60;99.90;;;;;;5089865;28;20450;-78
2022/05/25 12:32:41;;;;;;;0.70;0.17;;;21.60;99.90;;;;;;5099894;28;20432;-77
2022/05/25 12:35:11;;;;;;;0.70;0.10;;;21.40;99.90;;;;;;5098534;28;20548;-77
2022/05/25 12:37:48;;;;;;;0.70;0.20;;;21.40;99.90;;;;;;5100463;28;20475;-76
2022/05/25 12:40:41;;;;;;;0.73;0.27;;;21.40;99.90;;;;;;5097778;28;20811;-77
2022/05/25 12:43:42;;;;;;;0.70;0.20;;;21.40;99.90;;;;;;5094902;28;20952;-77
2022/05/25 12:48:59;;;;;;;0.70;0.20;;;21.90;99.90;;;;;;5096135;28;20441;-76
2022/05/25 12:51:36;;;;;;;1.07;0.73;;;22.00;99.90;;;;;;5097655;28;20561;-77
2022/05/25 12:54:06;;;;;;;0.70;0.20;;;21.70;99.90;;;;;;5099675;28;20439;-77
2022/05/25 12:56:37;;;;;;;0.70;0.20;;;21.70;99.90;;;;;;5096729;28;20464;-77
2022/05/25 12:59:11;;;;;;;0.70;0.17;;;21.70;99.90;;;;;;5098484;28;20504;-77
2022/05/25 13:01:42;;;;;;;0.70;0.30;;;21.90;99.90;;;;;;5099543;28;20529;-77
2022/05/25 13:04:17;;;;;;;0.70;0.10;;;21.80;99.90;;;;;;5097185;28;20436;-78
2022/05/25 13:07:09;;;;;;;0.70;0.20;;;21.20;99.90;;;;;;5097268;28;20433;-77
2022/05/25 13:09:42;;;;;;;0.70;0.17;;;21.00;99.90;;;;;;5095019;28;20934;-78
2022/05/25 13:12:44;;;;;;;0.70;0.20;;;21.10;99.90;;;;;;5094704;28;20440;-78
2022/05/25 13:15:40;;;;;;;0.70;0.20;;;21.50;99.90;;;;;;5093057;28;20464;-77
2022/05/25 13:18:49;;;;;;;0.70;0.10;;;21.50;99.90;;;;;;5092412;28;20469;-77
2022/05/25 13:21:39;;;;;;;0.70;0.10;;;21.50;99.90;;;;;;5093050;28;20448;-78
2022/05/25 13:24:26;;;;;;;0.70;0.20;;;22.70;99.90;;;;;;5092528;28;20448;-77
2022/05/25 13:27:16;;;;;;;1.47;0.30;;;22.10;99.90;;;;;;5092846;28;20564;-76
2022/05/25 13:30:03;;;;;;;3.33;0.30;;;22.10;99.90;;;;;;5092602;28;20457;-77
2022/05/25 13:32:37;;;;;;;0.70;0.10;;;21.90;99.90;;;;;;5092563;28;20761;-77
2022/05/25 13:35:31;;;;;;;0.70;0.10;;;21.90;99.90;;;;;;5095590;28;20837;-77
2022/05/25 13:38:02;;;;;;;0.70;0.17;;;22.00;99.90;;;;;;5085269;28;20508;-78
2022/05/25 13:40:38;;;;;;;0.70;0.20;;;22.10;99.90;;;;;;5091988;28;20742;-77
2022/05/25 13:43:11;;;;;;;0.80;0.50;;;22.10;99.90;;;;;;5092373;28;20440;-78
2022/05/25 13:45:43;;;;;;;0.70;0.20;;;22.10;99.90;;;;;;5091508;28;20551;-78
2022/05/25 13:48:13;;;;;;;0.70;0.10;;;22.00;99.90;;;;;;5083805;28;21025;-77
2022/05/25 13:50:45;;;;;;;0.70;0.20;;;21.90;99.90;;;;;;5093558;28;20442;-77